Time;durP1;ratioP1;P1;durP2;ratioP2;P2;SDS_P1;SDS_P2;PMS_P1;PMS_P2;Temp;Humidity;BMP_temperature;BMP_pressure;BME280_temperature;BME280_humidity;BME280_pressure;Samples;Min_cycle;Max_cycle;Signal;HPM_P1;HPM_P2
2023/10/08 00:00:47;;;;;;;3.25;0.60;;;;;;;;;;5074882;28;20065;-70
2023/10/08 00:03:14;;;;;;;3.58;0.52;;;;;;;;;;5073976;28;20031;-69
2023/10/08 00:05:41;;;;;;;2.28;0.43;;;;;;;;;;5073507;28;20039;-69
2023/10/08 00:08:09;;;;;;;0.40;0.30;;;;;;;;;;5073852;28;20028;-69
2023/10/08 00:10:42;;;;;;;3.15;0.50;;;;;;;;;;5057918;28;20032;-69
2023/10/08 00:13:09;;;;;;;2.22;0.50;;;;;;;;;;5073815;28;20028;-69
2023/10/08 00:15:36;;;;;;;5.35;0.57;;;;;;;;;;5074235;28;20044;-69
2023/10/08 00:18:04;;;;;;;2.08;0.60;;;;;;;;;;5074194;27;20168;-69
2023/10/08 00:20:35;;;;;;;3.28;0.40;;;;;;;;;;5074219;27;20039;-69
2023/10/08 00:23:07;;;;;;;1.08;0.30;;;;;;;;;;5073237;28;20028;-69
2023/10/08 00:25:34;;;;;;;1.73;0.40;;;;;;;;;;5074546;28;20028;-69
2023/10/08 00:28:01;;;;;;;1.67;0.32;;;;;;;;;;5074387;28;20545;-69
2023/10/08 00:30:31;;;;;;;5.47;0.85;;;;;;;;;;5073386;28;20058;-69
2023/10/08 00:32:57;;;;;;;1.80;0.30;;;;;;;;;;5073786;27;20032;-70
2023/10/08 00:35:24;;;;;;;1.08;0.28;;;;;;;;;;5073997;28;20035;-69
2023/10/08 00:37:50;;;;;;;1.02;0.20;;;;;;;;;;5073634;28;20039;-70
2023/10/08 00:40:21;;;;;;;2.35;0.52;;;;;;;;;;5074882;28;20047;-70
2023/10/08 00:42:47;;;;;;;2.33;0.30;;;;;;;;;;5073894;28;20028;-70
2023/10/08 00:45:14;;;;;;;1.75;0.45;;;;;;;;;;5073466;28;20138;-69
2023/10/08 00:47:43;;;;;;;0.98;0.32;;;;;;;;;;5073567;28;20138;-70
2023/10/08 00:50:22;;;;;;;4.25;0.45;;;;;;;;;;5074464;27;21125;-69
2023/10/08 00:53:09;;;;;;;2.28;0.60;;;;;;;;;;5073783;28;20040;-69
2023/10/08 00:55:35;;;;;;;1.65;0.30;;;;;;;;;;5073466;28;20024;-69
2023/10/08 00:58:09;;;;;;;3.90;0.55;;;;;;;;;;5074186;28;20040;-70
2023/10/08 01:00:40;;;;;;;1.58;0.40;;;;;;;;;;5072789;28;20032;-69
2023/10/08 01:03:14;;;;;;;2.45;0.63;;;;;;;;;;5073333;28;21110;-70
2023/10/08 01:05:47;;;;;;;1.75;0.40;;;;;;;;;;5073854;28;20055;-70
2023/10/08 01:08:22;;;;;;;1.90;0.40;;;;;;;;;;5073642;28;20094;-70
2023/10/08 01:10:49;;;;;;;2.58;0.57;;;;;;;;;;5073109;28;20170;-70
2023/10/08 01:13:20;;;;;;;1.33;0.30;;;;;;;;;;5073616;28;20685;-69
2023/10/08 01:15:50;;;;;;;7.15;0.85;;;;;;;;;;5072865;28;20043;-70
2023/10/08 01:18:24;;;;;;;0.85;0.43;;;;;;;;;;5073554;28;20826;-69
2023/10/08 01:20:52;;;;;;;1.73;0.57;;;;;;;;;;5073209;27;20130;-69
2023/10/08 01:23:22;;;;;;;4.15;0.70;;;;;;;;;;5073565;28;20081;-69
2023/10/08 01:25:51;;;;;;;3.38;0.70;;;;;;;;;;5054749;28;20134;-69
2023/10/08 01:28:25;;;;;;;4.78;0.73;;;;;;;;;;5073358;27;20028;-70
2023/10/08 01:30:53;;;;;;;2.50;0.70;;;;;;;;;;5073259;27;20142;-69
2023/10/08 01:33:21;;;;;;;3.83;0.82;;;;;;;;;;5072624;28;20851;-69
2023/10/08 01:35:48;;;;;;;3.90;0.70;;;;;;;;;;5073192;28;20043;-69
2023/10/08 01:38:16;;;;;;;5.25;1.17;;;;;;;;;;5072230;28;20024;-69
2023/10/08 01:40:42;;;;;;;4.80;0.85;;;;;;;;;;5072108;27;20027;-69
2023/10/08 01:43:10;;;;;;;5.07;0.80;;;;;;;;;;5073603;28;20087;-69
2023/10/08 01:45:40;;;;;;;1.42;0.57;;;;;;;;;;5073292;28;20089;-69
2023/10/08 01:48:09;;;;;;;3.42;0.70;;;;;;;;;;5072028;28;20024;-64
2023/10/08 01:50:35;;;;;;;2.30;0.80;;;;;;;;;;5072470;28;20036;-64
2023/10/08 01:53:01;;;;;;;6.07;1.20;;;;;;;;;;5071034;28;20028;-64
2023/10/08 01:55:29;;;;;;;2.45;0.60;;;;;;;;;;5070650;28;20024;-64
2023/10/08 01:57:56;;;;;;;3.65;0.90;;;;;;;;;;5070461;28;20043;-64
2023/10/08 02:00:23;;;;;;;5.07;1.30;;;;;;;;;;5071142;28;20957;-64
2023/10/08 02:02:52;;;;;;;4.07;0.60;;;;;;;;;;5071275;28;20035;-64
2023/10/08 02:05:21;;;;;;;4.78;0.77;;;;;;;;;;5070629;28;20872;-64
2023/10/08 02:07:48;;;;;;;4.95;0.80;;;;;;;;;;5072053;28;20786;-64
2023/10/08 02:10:14;;;;;;;4.07;1.10;;;;;;;;;;5072187;28;20043;-64
2023/10/08 02:12:43;;;;;;;4.93;1.25;;;;;;;;;;5072127;28;21321;-64
2023/10/08 02:15:11;;;;;;;6.78;0.70;;;;;;;;;;5072671;28;20070;-64
2023/10/08 02:17:38;;;;;;;3.80;0.63;;;;;;;;;;5072320;28;20241;-64
2023/10/08 02:20:05;;;;;;;4.57;1.05;;;;;;;;;;5072386;28;21701;-64
2023/10/08 02:22:32;;;;;;;2.03;0.75;;;;;;;;;;5052581;28;20043;-64
2023/10/08 02:25:01;;;;;;;3.42;0.65;;;;;;;;;;5072629;28;20031;-64
2023/10/08 02:27:33;;;;;;;5.85;0.82;;;;;;;;;;5060470;28;20546;-64
2023/10/08 02:29:59;;;;;;;5.85;0.90;;;;;;;;;;5072559;28;20526;-64
2023/10/08 02:32:25;;;;;;;7.75;1.08;;;;;;;;;;5072444;28;20035;-64
2023/10/08 02:34:51;;;;;;;4.68;1.10;;;;;;;;;;5071832;27;20036;-64
2023/10/08 02:37:19;;;;;;;7.88;1.27;;;;;;;;;;5072822;28;20067;-64
2023/10/08 02:39:45;;;;;;;4.10;0.93;;;;;;;;;;5071894;28;20027;-64
2023/10/08 02:42:14;;;;;;;6.32;1.17;;;;;;;;;;5071760;28;20035;-64
2023/10/08 02:44:43;;;;;;;3.85;0.85;;;;;;;;;;5072074;27;20159;-64
2023/10/08 02:47:22;;;;;;;8.10;1.40;;;;;;;;;;5072328;28;20114;-64
2023/10/08 02:49:52;;;;;;;4.63;1.20;;;;;;;;;;5072012;28;20114;-64
2023/10/08 02:52:20;;;;;;;4.53;1.08;;;;;;;;;;5071323;28;20035;-64
2023/10/08 02:54:46;;;;;;;4.50;0.93;;;;;;;;;;5072389;28;20028;-64
2023/10/08 02:57:14;;;;;;;8.32;1.20;;;;;;;;;;5052821;28;20039;-64
2023/10/08 02:59:41;;;;;;;5.60;1.30;;;;;;;;;;5072196;27;20563;-64
2023/10/08 03:02:18;;;;;;;5.35;1.08;;;;;;;;;;5071600;28;20039;-64
2023/10/08 03:04:45;;;;;;;3.90;0.95;;;;;;;;;;5073142;28;20937;-64
2023/10/08 03:07:31;;;;;;;4.45;1.00;;;;;;;;;;5071216;28;20072;-64
2023/10/08 03:10:17;;;;;;;5.32;0.90;;;;;;;;;;5052889;28;20046;-64
2023/10/08 03:12:43;;;;;;;7.30;1.20;;;;;;;;;;5072273;28;20019;-64
2023/10/08 03:15:15;;;;;;;7.68;1.48;;;;;;;;;;5071524;28;20146;-65
2023/10/08 03:18:08;;;;;;;4.18;1.00;;;;;;;;;;5071226;28;20114;-64
2023/10/08 03:20:42;;;;;;;3.30;0.90;;;;;;;;;;5070594;28;20071;-64
2023/10/08 03:23:13;;;;;;;4.70;0.80;;;;;;;;;;5071116;28;20709;-64
2023/10/08 03:25:42;;;;;;;4.88;1.17;;;;;;;;;;5074788;28;20028;-64
2023/10/08 03:28:09;;;;;;;5.47;0.77;;;;;;;;;;5076774;28;20073;-64
2023/10/08 03:30:49;;;;;;;6.65;1.17;;;;;;;;;;5075025;27;20051;-65
2023/10/08 03:33:22;;;;;;;7.35;1.30;;;;;;;;;;5075594;28;20174;-64
2023/10/08 03:35:49;;;;;;;4.20;0.95;;;;;;;;;;5076300;28;20028;-64
2023/10/08 03:38:28;;;;;;;7.72;0.82;;;;;;;;;;5075975;28;20100;-64
2023/10/08 03:40:58;;;;;;;2.03;0.70;;;;;;;;;;5075897;28;20062;-64
2023/10/08 03:43:33;;;;;;;4.85;0.98;;;;;;;;;;5075304;27;20032;-64
2023/10/08 03:46:05;;;;;;;3.03;0.90;;;;;;;;;;5075513;28;20031;-64
2023/10/08 03:48:38;;;;;;;4.22;1.20;;;;;;;;;;5074848;28;20039;-64
2023/10/08 03:51:11;;;;;;;5.30;1.23;;;;;;;;;;5075418;28;20028;-64
2023/10/08 03:53:42;;;;;;;4.63;1.00;;;;;;;;;;5076014;28;20056;-64
2023/10/08 03:56:08;;;;;;;2.03;0.80;;;;;;;;;;5075251;28;20035;-64
2023/10/08 03:58:41;;;;;;;3.65;0.90;;;;;;;;;;5075139;28;20036;-64
2023/10/08 04:01:18;;;;;;;6.90;1.25;;;;;;;;;;5075378;28;20071;-64
2023/10/08 04:14:17;;;;;;;3.10;1.10;;;;;;;;;;5056794;28;20158;-66
2023/10/08 04:16:43;;;;;;;6.28;1.42;;;;;;;;;;5073025;28;20031;-64
2023/10/08 04:19:10;;;;;;;5.07;1.05;;;;;;;;;;5072437;28;20082;-64
2023/10/08 04:21:36;;;;;;;3.15;1.33;;;;;;;;;;5054985;28;20040;-64
2023/10/08 04:24:06;;;;;;;7.80;1.30;;;;;;;;;;5073572;28;21896;-64
2023/10/08 04:26:32;;;;;;;3.83;1.20;;;;;;;;;;5072496;28;20028;-64
2023/10/08 04:29:02;;;;;;;4.18;1.30;;;;;;;;;;5073428;27;20042;-64
2023/10/08 04:31:36;;;;;;;5.60;0.98;;;;;;;;;;5072967;28;20023;-64
2023/10/08 04:34:09;;;;;;;4.70;1.27;;;;;;;;;;5073647;27;20023;-64
2023/10/08 04:36:38;;;;;;;9.27;1.50;;;;;;;;;;5072909;28;20032;-64
2023/10/08 04:39:13;;;;;;;6.97;1.63;;;;;;;;;;5075366;28;20032;-64
2023/10/08 04:41:42;;;;;;;8.48;1.65;;;;;;;;;;5074497;28;20486;-64
2023/10/08 04:44:14;;;;;;;5.65;1.25;;;;;;;;;;5074137;28;20522;-64
2023/10/08 04:49:19;;;;;;;5.25;1.63;;;;;;;;;;5074371;28;20594;-64
2023/10/08 04:51:45;;;;;;;7.05;1.30;;;;;;;;;;5074028;28;20090;-64
2023/10/08 04:54:18;;;;;;;7.53;1.60;;;;;;;;;;5073899;28;20036;-64
2023/10/08 04:56:44;;;;;;;5.75;1.23;;;;;;;;;;5073502;28;20060;-64
2023/10/08 04:59:11;;;;;;;6.03;1.10;;;;;;;;;;5074046;28;20570;-64
2023/10/08 05:01:47;;;;;;;6.55;1.20;;;;;;;;;;5072858;28;20662;-64
2023/10/08 05:04:26;;;;;;;3.97;1.23;;;;;;;;;;5073598;28;20038;-64
2023/10/08 05:07:01;;;;;;;4.38;1.20;;;;;;;;;;5072831;28;20066;-64
2023/10/08 05:09:45;;;;;;;6.07;1.77;;;;;;;;;;5073633;27;20047;-64
2023/10/08 05:12:32;;;;;;;7.22;1.25;;;;;;;;;;5073768;28;20036;-64
2023/10/08 05:15:21;;;;;;;4.20;1.50;;;;;;;;;;5072075;27;20130;-64
2023/10/08 05:20:30;;;;;;;6.03;1.50;;;;;;;;;;5073093;28;20930;-64
2023/10/08 05:28:30;;;;;;;9.20;1.60;;;;;;;;;;5073089;28;20090;-64
2023/10/08 05:34:14;;;;;;;8.15;1.75;;;;;;;;;;5070124;28;20038;-64
2023/10/08 05:37:10;;;;;;;8.15;1.75;;;;;;;;;;5071076;28;20020;-64
2023/10/08 05:42:31;;;;;;;11.25;1.60;;;;;;;;;;5069452;28;20139;-64
2023/10/08 05:50:38;;;;;;;7.68;1.42;;;;;;;;;;5070331;28;20089;-64
2023/10/08 05:55:34;;;;;;;6.15;1.27;;;;;;;;;;5071565;28;20171;-64
2023/10/08 06:04:20;;;;;;;9.35;2.15;;;;;;;;;;5007096;28;20033;-64
2023/10/08 06:06:57;;;;;;;6.72;1.63;;;;;;;;;;5008239;28;20115;-64
2023/10/08 06:09:35;;;;;;;4.93;1.40;;;;;;;;;;5054577;28;20097;-64
2023/10/08 06:12:10;;;;;;;8.60;1.40;;;;;;;;;;5071491;28;20031;-64
2023/10/08 06:14:52;;;;;;;6.72;1.77;;;;;;;;;;5071350;28;20074;-64
2023/10/08 06:17:44;;;;;;;8.68;1.85;;;;;;;;;;5051436;28;20020;-64
2023/10/08 06:20:16;;;;;;;6.28;1.40;;;;;;;;;;5071016;28;20779;-64
2023/10/08 06:22:42;;;;;;;9.18;1.80;;;;;;;;;;5070806;28;20032;-64
2023/10/08 06:25:22;;;;;;;4.40;1.40;;;;;;;;;;5071985;28;20032;-64
2023/10/08 06:27:49;;;;;;;6.78;1.60;;;;;;;;;;5050854;28;20035;-64
2023/10/08 06:30:18;;;;;;;6.55;1.88;;;;;;;;;;5071731;28;20070;-64
2023/10/08 06:32:45;;;;;;;6.68;1.65;;;;;;;;;;5072447;28;20024;-64
2023/10/08 06:35:17;;;;;;;14.35;2.17;;;;;;;;;;5071938;28;20028;-64
2023/10/08 06:37:54;;;;;;;9.65;1.50;;;;;;;;;;5071008;28;20844;-64
2023/10/08 06:43:14;;;;;;;7.53;1.80;;;;;;;;;;5068805;28;20044;-64
2023/10/08 06:45:40;;;;;;;5.30;1.52;;;;;;;;;;5070950;28;20070;-64
2023/10/08 06:48:07;;;;;;;7.90;1.02;;;;;;;;;;5069030;28;20041;-64
2023/10/08 06:50:34;;;;;;;7.15;1.60;;;;;;;;;;5070149;28;20058;-64
2023/10/08 06:53:06;;;;;;;12.15;2.10;;;;;;;;;;5071302;27;20543;-64
2023/10/08 06:55:33;;;;;;;6.82;1.23;;;;;;;;;;5071387;28;20081;-64
2023/10/08 06:58:05;;;;;;;8.05;1.50;;;;;;;;;;5071880;28;20055;-64
2023/10/08 07:00:39;;;;;;;6.93;1.70;;;;;;;;;;5070897;28;20024;-64
2023/10/08 07:03:07;;;;;;;8.88;2.05;;;;;;;;;;5071135;28;20035;-64
2023/10/08 07:05:40;;;;;;;7.07;1.30;;;;;;;;;;5071724;28;20162;-64
2023/10/08 07:08:07;;;;;;;11.65;1.98;;;;;;;;;;5053023;28;20028;-64
2023/10/08 07:10:36;;;;;;;7.50;1.90;;;;;;;;;;5068346;28;20067;-64
2023/10/08 07:13:03;;;;;;;10.20;1.60;;;;;;;;;;5064043;28;20031;-64
2023/10/08 07:15:32;;;;;;;7.07;1.40;;;;;;;;;;5063640;28;20047;-64
2023/10/08 07:18:08;;;;;;;5.50;1.50;;;;;;;;;;5051698;28;20571;-64
2023/10/08 07:20:38;;;;;;;8.32;1.65;;;;;;;;;;5064037;28;20031;-64
2023/10/08 07:23:09;;;;;;;8.55;1.55;;;;;;;;;;5063795;28;20638;-64
2023/10/08 07:25:36;;;;;;;10.07;1.67;;;;;;;;;;5064563;28;20659;-64
2023/10/08 07:28:12;;;;;;;8.63;1.75;;;;;;;;;;5064337;28;20036;-64
2023/10/08 07:30:43;;;;;;;8.23;1.67;;;;;;;;;;5043704;28;20039;-64
2023/10/08 07:33:17;;;;;;;7.30;1.42;;;;;;;;;;5063325;28;20032;-64
2023/10/08 07:35:51;;;;;;;7.38;1.70;;;;;;;;;;5061474;28;20851;-64
2023/10/08 07:38:17;;;;;;;7.72;1.20;;;;;;;;;;5061368;28;20044;-64
2023/10/08 07:40:44;;;;;;;6.78;1.92;;;;;;;;;;5062763;28;20062;-64
2023/10/08 07:43:10;;;;;;;6.03;1.35;;;;;;;;;;5062313;28;21239;-64
2023/10/08 07:45:37;;;;;;;6.45;1.33;;;;;;;;;;5062361;28;20077;-64
2023/10/08 07:48:09;;;;;;;8.63;1.45;;;;;;;;;;5060665;28;20032;-64
2023/10/08 07:50:37;;;;;;;6.15;1.38;;;;;;;;;;5062573;28;21323;-64
2023/10/08 07:53:04;;;;;;;7.95;1.67;;;;;;;;;;5062696;28;20020;-64
2023/10/08 07:55:32;;;;;;;9.93;1.77;;;;;;;;;;5062750;28;20028;-64
2023/10/08 07:57:59;;;;;;;9.50;1.67;;;;;;;;;;5061878;28;21983;-64
2023/10/08 08:00:30;;;;;;;11.93;1.60;;;;;;;;;;5042651;28;20154;-64
2023/10/08 08:02:57;;;;;;;15.05;1.90;;;;;;;;;;5061745;28;21146;-64
2023/10/08 08:05:26;;;;;;;4.32;1.33;;;;;;;;;;5061225;28;20067;-64
2023/10/08 08:07:58;;;;;;;8.57;1.65;;;;;;;;;;5061916;28;20040;-64
2023/10/08 08:10:25;;;;;;;7.50;1.63;;;;;;;;;;5062362;28;20160;-64
2023/10/08 08:12:56;;;;;;;5.90;1.60;;;;;;;;;;5066561;28;20032;-64
2023/10/08 08:15:22;;;;;;;7.95;2.13;;;;;;;;;;5065613;28;20048;-64
2023/10/08 08:17:50;;;;;;;9.30;2.28;;;;;;;;;;5065842;28;20082;-64
2023/10/08 08:20:19;;;;;;;7.35;1.73;;;;;;;;;;5065791;28;20039;-65
2023/10/08 08:22:54;;;;;;;8.85;2.00;;;;;;;;;;5064937;28;20122;-64
2023/10/08 08:25:33;;;;;;;7.40;2.05;;;;;;;;;;5065729;28;21059;-64
2023/10/08 08:28:00;;;;;;;8.30;1.30;;;;;;;;;;5065981;28;20151;-64
2023/10/08 08:30:29;;;;;;;7.82;1.80;;;;;;;;;;5065775;28;20035;-64
2023/10/08 08:32:56;;;;;;;9.90;1.38;;;;;;;;;;5064406;28;20031;-64
2023/10/08 08:35:23;;;;;;;5.45;1.05;;;;;;;;;;5066061;28;20047;-64
2023/10/08 08:37:49;;;;;;;8.10;1.55;;;;;;;;;;5065296;28;20046;-65
2023/10/08 08:40:18;;;;;;;6.85;2.08;;;;;;;;;;5066226;28;20040;-64
2023/10/08 08:42:48;;;;;;;9.80;1.45;;;;;;;;;;5065446;28;20031;-64
2023/10/08 08:45:21;;;;;;;7.50;1.30;;;;;;;;;;5065646;28;20057;-64
2023/10/08 08:47:48;;;;;;;6.95;1.50;;;;;;;;;;5064946;28;20259;-64
2023/10/08 08:50:14;;;;;;;7.85;1.75;;;;;;;;;;5065270;28;20035;-64
2023/10/08 08:52:41;;;;;;;7.82;1.65;;;;;;;;;;5061901;28;20028;-64
2023/10/08 08:55:17;;;;;;;8.35;1.48;;;;;;;;;;5062782;28;20032;-65
2023/10/08 08:57:44;;;;;;;9.13;1.88;;;;;;;;;;5065086;28;20015;-64
2023/10/08 09:00:12;;;;;;;9.02;1.65;;;;;;;;;;5063644;27;20941;-64
2023/10/08 09:02:39;;;;;;;10.70;2.50;;;;;;;;;;5064513;28;20118;-64
2023/10/08 09:05:13;;;;;;;7.32;1.67;;;;;;;;;;5063942;28;20471;-69
2023/10/08 09:07:58;;;;;;;8.65;1.55;;;;;;;;;;5065232;27;20546;-71
2023/10/08 09:10:28;;;;;;;8.63;1.52;;;;;;;;;;5045518;28;20138;-71
2023/10/08 09:12:57;;;;;;;9.73;2.03;;;;;;;;;;5063237;28;20038;-70
2023/10/08 09:15:25;;;;;;;6.55;1.55;;;;;;;;;;5063419;28;20388;-70
2023/10/08 09:17:52;;;;;;;6.32;1.25;;;;;;;;;;5062858;28;20062;-70
2023/10/08 09:20:20;;;;;;;10.90;1.83;;;;;;;;;;5064484;28;20030;-70
2023/10/08 09:22:47;;;;;;;10.25;2.13;;;;;;;;;;5063656;28;20101;-70
2023/10/08 09:25:17;;;;;;;10.75;2.08;;;;;;;;;;5065805;28;21149;-71
2023/10/08 09:27:46;;;;;;;7.88;1.65;;;;;;;;;;5065992;28;20039;-70
2023/10/08 09:30:17;;;;;;;7.22;1.67;;;;;;;;;;5065928;28;20062;-70
2023/10/08 09:32:43;;;;;;;10.20;1.90;;;;;;;;;;5055355;28;20039;-71
2023/10/08 09:35:13;;;;;;;10.73;1.85;;;;;;;;;;5065644;28;20483;-70
2023/10/08 09:37:39;;;;;;;8.18;1.75;;;;;;;;;;5065766;28;20032;-71
2023/10/08 09:40:11;;;;;;;10.80;1.40;;;;;;;;;;5066248;28;20062;-71
2023/10/08 09:42:39;;;;;;;10.40;2.33;;;;;;;;;;5064064;28;21928;-70
2023/10/08 09:45:08;;;;;;;7.63;1.30;;;;;;;;;;5064847;28;20024;-71
2023/10/08 09:47:36;;;;;;;14.38;2.15;;;;;;;;;;5065528;27;20024;-71
2023/10/08 09:50:07;;;;;;;8.00;1.73;;;;;;;;;;5061461;28;20025;-71
2023/10/08 09:52:40;;;;;;;6.72;1.25;;;;;;;;;;5065969;28;20040;-70
2023/10/08 09:55:11;;;;;;;10.23;2.13;;;;;;;;;;5065621;28;20063;-71
2023/10/08 09:57:38;;;;;;;8.48;1.60;;;;;;;;;;5065965;28;21869;-71
2023/10/08 10:00:15;;;;;;;9.18;1.55;;;;;;;;;;5065710;27;20395;-71
2023/10/08 10:02:43;;;;;;;8.88;1.80;;;;;;;;;;5065043;28;20031;-71
2023/10/08 10:05:12;;;;;;;9.45;1.70;;;;;;;;;;5065227;28;20590;-71
2023/10/08 10:07:43;;;;;;;10.85;1.98;;;;;;;;;;5066130;27;20919;-71
2023/10/08 10:10:31;;;;;;;8.63;1.85;;;;;;;;;;5064936;28;20039;-71
2023/10/08 10:13:01;;;;;;;5.22;1.27;;;;;;;;;;5051833;28;20395;-71
2023/10/08 10:15:30;;;;;;;10.75;2.35;;;;;;;;;;5064128;28;20061;-71
2023/10/08 10:17:59;;;;;;;9.70;1.50;;;;;;;;;;5063744;28;20627;-70
2023/10/08 10:20:25;;;;;;;7.30;1.30;;;;;;;;;;5062997;28;20413;-71
2023/10/08 10:22:51;;;;;;;5.30;1.40;;;;;;;;;;5063784;28;20044;-71
2023/10/08 10:25:18;;;;;;;9.80;1.27;;;;;;;;;;5063613;28;20032;-71
2023/10/08 10:27:56;;;;;;;6.03;1.63;;;;;;;;;;5064589;28;20036;-70
2023/10/08 10:30:23;;;;;;;5.60;1.52;;;;;;;;;;5063652;28;20111;-71
2023/10/08 10:32:52;;;;;;;6.60;1.30;;;;;;;;;;5064097;28;20940;-71
2023/10/08 10:35:19;;;;;;;9.93;2.20;;;;;;;;;;5064027;28;20027;-70
2023/10/08 10:37:52;;;;;;;9.68;1.50;;;;;;;;;;5064211;28;20039;-71
2023/10/08 10:40:40;;;;;;;9.02;1.48;;;;;;;;;;5064490;28;20057;-70
2023/10/08 10:43:09;;;;;;;8.55;1.73;;;;;;;;;;5046325;28;20176;-71
2023/10/08 10:45:47;;;;;;;10.95;2.03;;;;;;;;;;5062334;28;20032;-71
2023/10/08 10:53:32;;;;;;;6.53;1.60;;;;;;;;;;5062052;28;20051;-71
2023/10/08 10:55:59;;;;;;;8.88;1.65;;;;;;;;;;5063881;28;20027;-71
2023/10/08 10:58:28;;;;;;;13.68;1.60;;;;;;;;;;5064462;28;20055;-71
2023/10/08 11:00:59;;;;;;;9.93;1.95;;;;;;;;;;5062806;28;20027;-71
2023/10/08 11:03:25;;;;;;;7.65;1.45;;;;;;;;;;5060391;28;20028;-71
2023/10/08 11:05:54;;;;;;;8.80;1.95;;;;;;;;;;5061249;28;20081;-71
2023/10/08 11:08:23;;;;;;;5.13;1.23;;;;;;;;;;5062003;28;22504;-71
2023/10/08 11:10:53;;;;;;;7.18;1.40;;;;;;;;;;5060172;28;20071;-70
2023/10/08 11:13:20;;;;;;;9.48;1.85;;;;;;;;;;5060630;28;20495;-70
2023/10/08 11:15:51;;;;;;;6.70;1.40;;;;;;;;;;5068469;28;20035;-71
2023/10/08 11:18:18;;;;;;;10.10;1.73;;;;;;;;;;5069740;28;20123;-71
2023/10/08 11:20:45;;;;;;;6.57;1.33;;;;;;;;;;5071610;28;20031;-71
2023/10/08 11:23:17;;;;;;;10.15;1.90;;;;;;;;;;5070541;28;20501;-70
2023/10/08 11:25:53;;;;;;;6.28;1.42;;;;;;;;;;5071644;28;20028;-71
2023/10/08 11:28:19;;;;;;;8.15;2.25;;;;;;;;;;5071119;28;20024;-70
2023/10/08 11:30:47;;;;;;;8.27;1.50;;;;;;;;;;5071700;28;20070;-70
2023/10/08 11:33:15;;;;;;;8.63;1.55;;;;;;;;;;5070283;28;20023;-71
2023/10/08 11:36:01;;;;;;;6.15;1.38;;;;;;;;;;5071618;28;20572;-71
2023/10/08 11:38:27;;;;;;;10.57;2.08;;;;;;;;;;5069366;28;20482;-71
2023/10/08 11:40:56;;;;;;;8.43;1.40;;;;;;;;;;5071849;28;20036;-70
2023/10/08 11:43:25;;;;;;;8.55;1.73;;;;;;;;;;5070050;28;20030;-71
2023/10/08 11:45:52;;;;;;;8.35;1.70;;;;;;;;;;5072238;28;20063;-71
2023/10/08 11:48:25;;;;;;;7.05;1.40;;;;;;;;;;5074846;27;20051;-71
2023/10/08 11:50:52;;;;;;;6.82;1.55;;;;;;;;;;5073252;28;20038;-71
2023/10/08 11:53:21;;;;;;;8.05;1.40;;;;;;;;;;5074214;28;20027;-71
2023/10/08 11:55:48;;;;;;;10.43;1.67;;;;;;;;;;5074887;28;20028;-70
2023/10/08 11:58:19;;;;;;;7.60;2.10;;;;;;;;;;5075188;28;20036;-71
2023/10/08 12:00:46;;;;;;;5.40;1.50;;;;;;;;;;5075689;28;20031;-71
2023/10/08 12:03:16;;;;;;;8.18;1.65;;;;;;;;;;5074549;28;20024;-70
2023/10/08 12:05:48;;;;;;;7.38;1.52;;;;;;;;;;5070774;28;20019;-71
2023/10/08 12:08:20;;;;;;;6.50;1.48;;;;;;;;;;5046183;28;20035;-71
2023/10/08 12:10:47;;;;;;;8.15;1.65;;;;;;;;;;5067282;27;20058;-71
2023/10/08 12:13:16;;;;;;;10.32;1.95;;;;;;;;;;5067316;28;20038;-71
2023/10/08 12:15:44;;;;;;;10.35;1.70;;;;;;;;;;5048027;28;20132;-72
2023/10/08 12:21:15;;;;;;;6.05;1.30;;;;;;;;;;5048871;27;20084;-71
2023/10/08 12:23:43;;;;;;;6.95;1.50;;;;;;;;;;5067203;28;20028;-72
2023/10/08 12:26:09;;;;;;;8.68;1.65;;;;;;;;;;5066738;28;20501;-71
2023/10/08 12:28:36;;;;;;;14.05;2.00;;;;;;;;;;5066508;28;20449;-71
2023/10/08 12:31:03;;;;;;;7.18;1.55;;;;;;;;;;5066334;27;20680;-71
2023/10/08 12:33:31;;;;;;;6.32;1.40;;;;;;;;;;5067476;28;20027;-70
2023/10/08 12:35:57;;;;;;;9.45;1.52;;;;;;;;;;5065886;28;20415;-71
2023/10/08 12:38:24;;;;;;;8.98;1.35;;;;;;;;;;5064614;28;20043;-71
2023/10/08 12:40:53;;;;;;;6.40;1.50;;;;;;;;;;5056350;28;20100;-71
2023/10/08 12:43:26;;;;;;;6.93;1.42;;;;;;;;;;5066166;28;20050;-71
2023/10/08 12:45:53;;;;;;;7.47;1.40;;;;;;;;;;5066333;28;20044;-71
2023/10/08 12:48:20;;;;;;;6.55;1.50;;;;;;;;;;5066145;28;20455;-70
2023/10/08 12:50:52;;;;;;;7.78;1.50;;;;;;;;;;5066426;28;20023;-71
2023/10/08 12:53:19;;;;;;;9.55;1.52;;;;;;;;;;5072638;27;20619;-71
2023/10/08 12:55:46;;;;;;;6.20;1.58;;;;;;;;;;5073018;27;20024;-71
2023/10/08 12:58:14;;;;;;;7.93;1.38;;;;;;;;;;5071864;28;20052;-71
2023/10/08 13:00:41;;;;;;;7.05;1.73;;;;;;;;;;5073762;28;20043;-70
2023/10/08 13:03:22;;;;;;;6.50;1.60;;;;;;;;;;5073807;28;21013;-71
2023/10/08 13:05:52;;;;;;;8.95;1.50;;;;;;;;;;5072609;28;21224;-71
2023/10/08 13:08:19;;;;;;;8.40;1.45;;;;;;;;;;5072931;28;20028;-71
2023/10/08 13:10:45;;;;;;;10.98;1.60;;;;;;;;;;5072906;28;20119;-70
2023/10/08 13:13:12;;;;;;;6.65;1.60;;;;;;;;;;5072696;28;20909;-71
2023/10/08 13:15:38;;;;;;;10.98;1.70;;;;;;;;;;5072725;28;20055;-71
2023/10/08 13:18:05;;;;;;;6.30;1.50;;;;;;;;;;5072016;28;20080;-71
2023/10/08 13:20:34;;;;;;;7.80;1.73;;;;;;;;;;5070639;28;20033;-72
2023/10/08 13:23:07;;;;;;;9.52;1.77;;;;;;;;;;5071787;28;20050;-71
2023/10/08 13:25:39;;;;;;;8.02;2.25;;;;;;;;;;5052146;28;21492;-70
2023/10/08 13:28:07;;;;;;;7.13;1.80;;;;;;;;;;5071935;28;20032;-71
2023/10/08 13:30:33;;;;;;;11.02;2.65;;;;;;;;;;5072759;28;20040;-71
2023/10/08 13:32:59;;;;;;;8.05;1.55;;;;;;;;;;5071817;28;20652;-71
2023/10/08 13:35:25;;;;;;;8.10;1.40;;;;;;;;;;5071976;28;20032;-71
2023/10/08 13:37:52;;;;;;;4.03;0.93;;;;;;;;;;5072871;28;20570;-71
2023/10/08 13:40:18;;;;;;;9.15;2.03;;;;;;;;;;5073075;28;20466;-71
2023/10/08 13:42:44;;;;;;;5.05;1.40;;;;;;;;;;5072438;28;20042;-71
2023/10/08 13:45:25;;;;;;;5.47;1.25;;;;;;;;;;5072223;28;20028;-71
2023/10/08 13:47:52;;;;;;;8.38;1.27;;;;;;;;;;5072868;28;20055;-71
2023/10/08 13:50:18;;;;;;;7.72;1.40;;;;;;;;;;5072576;28;20066;-71
2023/10/08 13:52:44;;;;;;;8.18;2.03;;;;;;;;;;5071418;28;21671;-71
2023/10/08 13:55:13;;;;;;;13.10;2.03;;;;;;;;;;5072939;28;20039;-70
2023/10/08 13:57:42;;;;;;;8.68;2.17;;;;;;;;;;5054604;28;20020;-70
2023/10/08 14:00:15;;;;;;;9.63;1.70;;;;;;;;;;5071588;28;20500;-71
2023/10/08 14:02:42;;;;;;;8.27;1.95;;;;;;;;;;5073534;28;20072;-70
2023/10/08 14:05:08;;;;;;;6.85;1.70;;;;;;;;;;5072824;28;20059;-70
2023/10/08 14:07:35;;;;;;;6.22;1.30;;;;;;;;;;5071426;28;20034;-70
2023/10/08 14:10:08;;;;;;;9.18;1.50;;;;;;;;;;5071481;28;20862;-71
2023/10/08 14:12:34;;;;;;;4.47;1.20;;;;;;;;;;5071985;28;20023;-70
2023/10/08 14:15:06;;;;;;;11.05;1.60;;;;;;;;;;5072319;27;20062;-70
2023/10/08 14:17:48;;;;;;;8.23;1.73;;;;;;;;;;5071675;28;20047;-70
2023/10/08 14:20:16;;;;;;;6.22;1.65;;;;;;;;;;5054749;28;20047;-71
2023/10/08 14:22:43;;;;;;;10.23;1.80;;;;;;;;;;5071640;28;21373;-70
2023/10/08 14:25:15;;;;;;;7.90;1.58;;;;;;;;;;5071417;28;20071;-70
2023/10/08 14:27:43;;;;;;;10.30;1.65;;;;;;;;;;5072391;28;20135;-70
2023/10/08 14:30:15;;;;;;;7.18;1.40;;;;;;;;;;5072319;28;20035;-71
2023/10/08 14:32:46;;;;;;;8.40;1.92;;;;;;;;;;5071313;28;20832;-70
2023/10/08 14:43:34;;;;;;;10.30;1.38;;;;;;;;;;5071859;28;20039;-70
2023/10/08 14:46:04;;;;;;;10.18;1.65;;;;;;;;;;5071255;28;20560;-71
2023/10/08 14:48:34;;;;;;;9.57;1.40;;;;;;;;;;5070728;28;20036;-71
2023/10/08 14:51:01;;;;;;;8.95;1.80;;;;;;;;;;5070023;28;20036;-70
2023/10/08 14:53:28;;;;;;;10.10;1.85;;;;;;;;;;5050071;28;20031;-70
2023/10/08 14:55:54;;;;;;;4.88;1.40;;;;;;;;;;5070978;28;20024;-70
2023/10/08 14:58:20;;;;;;;5.50;1.08;;;;;;;;;;5071036;28;21142;-70
2023/10/08 15:00:46;;;;;;;10.68;1.63;;;;;;;;;;5052790;28;21788;-70
2023/10/08 15:03:12;;;;;;;9.15;1.85;;;;;;;;;;5071461;28;20032;-72
2023/10/08 15:05:40;;;;;;;7.47;1.42;;;;;;;;;;5070387;28;20024;-71
2023/10/08 15:08:09;;;;;;;8.02;1.50;;;;;;;;;;5070597;28;20038;-71
2023/10/08 15:10:36;;;;;;;7.35;1.20;;;;;;;;;;5071184;28;20454;-71
2023/10/08 15:13:02;;;;;;;8.38;1.67;;;;;;;;;;5070839;28;20658;-71
2023/10/08 15:15:34;;;;;;;7.47;1.58;;;;;;;;;;5070939;28;20043;-71
2023/10/08 15:18:02;;;;;;;6.32;1.08;;;;;;;;;;5070539;28;20061;-70
2023/10/08 15:20:32;;;;;;;5.68;1.70;;;;;;;;;;5070127;28;20031;-71
2023/10/08 15:22:58;;;;;;;4.15;1.00;;;;;;;;;;5071169;28;20055;-71
2023/10/08 15:25:24;;;;;;;7.65;1.25;;;;;;;;;;5070748;28;20047;-70
2023/10/08 15:27:50;;;;;;;6.63;1.80;;;;;;;;;;5069660;28;20027;-70
2023/10/08 15:30:21;;;;;;;23.92;1.80;;;;;;;;;;5069017;28;20028;-70
2023/10/08 15:32:47;;;;;;;6.80;1.50;;;;;;;;;;5069927;28;22138;-71
2023/10/08 15:35:16;;;;;;;11.23;1.60;;;;;;;;;;5068292;28;20032;-71
2023/10/08 15:37:42;;;;;;;7.78;1.48;;;;;;;;;;5066919;28;20040;-70
2023/10/08 15:40:17;;;;;;;8.20;1.10;;;;;;;;;;5067932;28;20109;-71
2023/10/08 15:42:43;;;;;;;7.70;1.60;;;;;;;;;;5069364;28;20415;-70
2023/10/08 15:45:12;;;;;;;7.35;1.27;;;;;;;;;;5069339;28;20444;-70
2023/10/08 15:47:38;;;;;;;8.25;1.50;;;;;;;;;;5069298;28;20034;-70
2023/10/08 15:50:05;;;;;;;8.35;1.40;;;;;;;;;;5070152;28;20554;-70
2023/10/08 15:52:31;;;;;;;16.20;1.95;;;;;;;;;;5070846;28;20032;-71
2023/10/08 15:54:58;;;;;;;6.70;1.88;;;;;;;;;;5069049;28;20187;-71
2023/10/08 15:57:24;;;;;;;7.55;1.80;;;;;;;;;;5069792;28;20032;-72